sensor_id;sensor_type;location;lat;lon;timestamp;P1;durP1;ratioP1;P2;durP2;ratioP2
71312;SDS011;59104;44.738;20.612;2022-09-17T00:01:54;11.57;;;6.78;;
71312;SDS011;59104;44.738;20.612;2022-09-17T00:04:20;11.77;;;6.90;;
71312;SDS011;59104;44.738;20.612;2022-09-17T00:06:45;13.13;;;6.65;;
71312;SDS011;59104;44.738;20.612;2022-09-17T00:09:11;14.77;;;7.68;;
71312;SDS011;59104;44.738;20.612;2022-09-17T00:11:37;12.85;;;7.20;;
71312;SDS011;59104;44.738;20.612;2022-09-17T00:14:03;10.93;;;5.57;;
71312;SDS011;59104;44.738;20.612;2022-09-17T00:16:30;10.45;;;5.82;;
71312;SDS011;59104;44.738;20.612;2022-09-17T00:18:56;12.52;;;5.63;;
71312;SDS011;59104;44.738;20.612;2022-09-17T00:21:22;13.43;;;7.03;;
71312;SDS011;59104;44.738;20.612;2022-09-17T00:23:51;16.38;;;7.93;;
71312;SDS011;59104;44.738;20.612;2022-09-17T00:26:17;12.60;;;6.75;;
71312;SDS011;59104;44.738;20.612;2022-09-17T00:28:42;11.82;;;6.53;;
71312;SDS011;59104;44.738;20.612;2022-09-17T00:31:12;10.80;;;6.38;;
71312;SDS011;59104;44.738;20.612;2022-09-17T00:33:38;16.95;;;8.98;;
71312;SDS011;59104;44.738;20.612;2022-09-17T00:36:03;15.80;;;8.40;;
71312;SDS011;59104;44.738;20.612;2022-09-17T00:38:29;13.95;;;7.50;;
71312;SDS011;59104;44.738;20.612;2022-09-17T00:40:54;13.93;;;8.77;;
71312;SDS011;59104;44.738;20.612;2022-09-17T00:43:40;14.25;;;7.10;;
71312;SDS011;59104;44.738;20.612;2022-09-17T00:48:46;14.40;;;7.30;;
71312;SDS011;59104;44.738;20.612;2022-09-17T00:51:13;14.55;;;7.22;;
71312;SDS011;59104;44.738;20.612;2022-09-17T00:53:39;14.30;;;7.32;;
71312;SDS011;59104;44.738;20.612;2022-09-17T00:56:19;18.73;;;8.82;;
71312;SDS011;59104;44.738;20.612;2022-09-17T00:58:47;20.05;;;9.23;;
71312;SDS011;59104;44.738;20.612;2022-09-17T01:01:13;18.27;;;9.20;;
71312;SDS011;59104;44.738;20.612;2022-09-17T01:03:39;16.15;;;7.57;;
71312;SDS011;59104;44.738;20.612;2022-09-17T01:16:10;17.48;;;8.75;;
71312;SDS011;59104;44.738;20.612;2022-09-17T01:31:39;14.63;;;7.57;;
71312;SDS011;59104;44.738;20.612;2022-09-17T01:36:48;6.88;;;4.25;;
71312;SDS011;59104;44.738;20.612;2022-09-17T01:39:21;5.55;;;2.85;;
71312;SDS011;59104;44.738;20.612;2022-09-17T01:41:55;5.38;;;3.47;;
71312;SDS011;59104;44.738;20.612;2022-09-17T01:47:01;6.13;;;4.18;;
71312;SDS011;59104;44.738;20.612;2022-09-17T01:49:29;6.57;;;3.95;;
71312;SDS011;59104;44.738;20.612;2022-09-17T01:51:56;6.75;;;4.13;;
71312;SDS011;59104;44.738;20.612;2022-09-17T01:59:19;8.48;;;5.07;;
71312;SDS011;59104;44.738;20.612;2022-09-17T02:01:47;8.02;;;4.70;;
71312;SDS011;59104;44.738;20.612;2022-09-17T02:04:49;9.05;;;5.10;;
71312;SDS011;59104;44.738;20.612;2022-09-17T02:07:07;5.20;;;3.53;;
71312;SDS011;59104;44.738;20.612;2022-09-17T02:09:45;4.50;;;2.95;;
71312;SDS011;59104;44.738;20.612;2022-09-17T02:12:14;6.65;;;2.72;;
71312;SDS011;59104;44.738;20.612;2022-09-17T02:14:43;9.57;;;2.20;;
71312;SDS011;59104;44.738;20.612;2022-09-17T02:17:13;2.15;;;1.80;;
71312;SDS011;59104;44.738;20.612;2022-09-17T02:19:40;2.05;;;1.73;;
71312;SDS011;59104;44.738;20.612;2022-09-17T02:22:23;3.45;;;1.90;;
71312;SDS011;59104;44.738;20.612;2022-09-17T02:30:07;2.20;;;1.35;;
71312;SDS011;59104;44.738;20.612;2022-09-17T02:32:32;3.05;;;1.58;;
71312;SDS011;59104;44.738;20.612;2022-09-17T02:34:58;2.83;;;1.70;;
71312;SDS011;59104;44.738;20.612;2022-09-17T02:37:23;2.25;;;1.42;;
71312;SDS011;59104;44.738;20.612;2022-09-17T02:39:48;5.97;;;1.67;;
71312;SDS011;59104;44.738;20.612;2022-09-17T02:50:11;2.60;;;1.40;;
71312;SDS011;59104;44.738;20.612;2022-09-17T02:57:35;3.35;;;1.60;;
71312;SDS011;59104;44.738;20.612;2022-09-17T03:02:31;3.10;;;1.50;;
71312;SDS011;59104;44.738;20.612;2022-09-17T03:04:58;7.45;;;1.95;;
71312;SDS011;59104;44.738;20.612;2022-09-17T03:07:25;3.58;;;2.28;;
71312;SDS011;59104;44.738;20.612;2022-09-17T03:09:53;2.72;;;1.70;;
71312;SDS011;59104;44.738;20.612;2022-09-17T03:12:18;2.30;;;1.70;;
71312;SDS011;59104;44.738;20.612;2022-09-17T03:14:44;6.13;;;3.00;;
71312;SDS011;59104;44.738;20.612;2022-09-17T03:17:10;2.80;;;1.88;;
71312;SDS011;59104;44.738;20.612;2022-09-17T03:19:35;3.30;;;2.15;;
71312;SDS011;59104;44.738;20.612;2022-09-17T03:22:01;3.47;;;1.90;;
71312;SDS011;59104;44.738;20.612;2022-09-17T03:24:26;2.70;;;1.70;;
71312;SDS011;59104;44.738;20.612;2022-09-17T03:26:51;3.75;;;2.10;;
71312;SDS011;59104;44.738;20.612;2022-09-17T03:29:17;3.15;;;2.15;;
71312;SDS011;59104;44.738;20.612;2022-09-17T03:31:42;3.72;;;2.42;;
71312;SDS011;59104;44.738;20.612;2022-09-17T03:34:08;4.28;;;1.95;;
71312;SDS011;59104;44.738;20.612;2022-09-17T03:36:33;2.97;;;1.52;;
71312;SDS011;59104;44.738;20.612;2022-09-17T03:38:59;2.45;;;1.65;;
71312;SDS011;59104;44.738;20.612;2022-09-17T03:41:25;3.05;;;1.92;;
71312;SDS011;59104;44.738;20.612;2022-09-17T03:43:51;2.53;;;1.55;;
71312;SDS011;59104;44.738;20.612;2022-09-17T03:46:17;5.88;;;2.38;;
71312;SDS011;59104;44.738;20.612;2022-09-17T03:48:43;3.40;;;1.90;;
71312;SDS011;59104;44.738;20.612;2022-09-17T03:51:08;3.17;;;2.05;;
71312;SDS011;59104;44.738;20.612;2022-09-17T03:53:33;2.80;;;1.85;;
71312;SDS011;59104;44.738;20.612;2022-09-17T03:56:03;5.28;;;1.90;;
71312;SDS011;59104;44.738;20.612;2022-09-17T03:58:29;5.25;;;1.83;;
71312;SDS011;59104;44.738;20.612;2022-09-17T04:00:55;5.22;;;1.85;;
71312;SDS011;59104;44.738;20.612;2022-09-17T04:03:26;3.58;;;1.80;;
71312;SDS011;59104;44.738;20.612;2022-09-17T04:05:52;3.45;;;2.17;;
71312;SDS011;59104;44.738;20.612;2022-09-17T04:08:17;3.65;;;2.45;;
71312;SDS011;59104;44.738;20.612;2022-09-17T04:10:43;2.97;;;1.98;;
71312;SDS011;59104;44.738;20.612;2022-09-17T04:13:09;2.42;;;2.00;;
71312;SDS011;59104;44.738;20.612;2022-09-17T04:15:35;2.65;;;1.67;;
71312;SDS011;59104;44.738;20.612;2022-09-17T04:18:00;2.92;;;2.08;;
71312;SDS011;59104;44.738;20.612;2022-09-17T04:20:25;3.50;;;1.85;;
71312;SDS011;59104;44.738;20.612;2022-09-17T04:22:51;3.47;;;2.03;;
71312;SDS011;59104;44.738;20.612;2022-09-17T04:25:16;2.47;;;1.48;;
71312;SDS011;59104;44.738;20.612;2022-09-17T04:27:42;6.13;;;2.55;;
71312;SDS011;59104;44.738;20.612;2022-09-17T04:30:08;3.95;;;2.22;;
71312;SDS011;59104;44.738;20.612;2022-09-17T04:32:34;4.88;;;2.45;;
71312;SDS011;59104;44.738;20.612;2022-09-17T04:35:00;3.20;;;2.03;;
71312;SDS011;59104;44.738;20.612;2022-09-17T04:37:25;3.45;;;2.15;;
71312;SDS011;59104;44.738;20.612;2022-09-17T04:39:51;5.25;;;2.92;;
71312;SDS011;59104;44.738;20.612;2022-09-17T04:42:16;5.90;;;3.88;;
71312;SDS011;59104;44.738;20.612;2022-09-17T04:44:42;3.70;;;2.63;;
71312;SDS011;59104;44.738;20.612;2022-09-17T04:47:07;5.13;;;3.47;;
71312;SDS011;59104;44.738;20.612;2022-09-17T04:49:33;5.68;;;2.75;;
71312;SDS011;59104;44.738;20.612;2022-09-17T04:51:58;7.13;;;4.20;;
71312;SDS011;59104;44.738;20.612;2022-09-17T04:54:24;7.85;;;3.25;;
71312;SDS011;59104;44.738;20.612;2022-09-17T04:56:49;4.80;;;2.67;;
71312;SDS011;59104;44.738;20.612;2022-09-17T04:59:15;3.70;;;2.65;;
71312;SDS011;59104;44.738;20.612;2022-09-17T05:01:40;5.63;;;3.22;;
71312;SDS011;59104;44.738;20.612;2022-09-17T05:04:07;7.43;;;3.50;;
71312;SDS011;59104;44.738;20.612;2022-09-17T05:06:32;5.00;;;3.03;;
71312;SDS011;59104;44.738;20.612;2022-09-17T05:08:58;6.00;;;3.63;;
71312;SDS011;59104;44.738;20.612;2022-09-17T05:11:23;4.70;;;3.03;;
71312;SDS011;59104;44.738;20.612;2022-09-17T05:13:48;4.72;;;3.58;;
71312;SDS011;59104;44.738;20.612;2022-09-17T05:16:14;5.43;;;3.85;;
71312;SDS011;59104;44.738;20.612;2022-09-17T05:18:39;5.75;;;3.65;;
71312;SDS011;59104;44.738;20.612;2022-09-17T05:21:05;9.38;;;4.78;;
71312;SDS011;59104;44.738;20.612;2022-09-17T05:23:30;7.00;;;4.15;;
71312;SDS011;59104;44.738;20.612;2022-09-17T05:25:59;7.38;;;4.53;;
71312;SDS011;59104;44.738;20.612;2022-09-17T05:28:25;6.47;;;4.28;;
71312;SDS011;59104;44.738;20.612;2022-09-17T05:30:50;5.78;;;3.65;;
71312;SDS011;59104;44.738;20.612;2022-09-17T05:33:16;4.40;;;3.30;;
71312;SDS011;59104;44.738;20.612;2022-09-17T05:35:43;6.20;;;3.58;;
71312;SDS011;59104;44.738;20.612;2022-09-17T05:38:09;8.55;;;4.72;;
71312;SDS011;59104;44.738;20.612;2022-09-17T05:40:34;6.65;;;4.40;;
71312;SDS011;59104;44.738;20.612;2022-09-17T05:43:02;7.90;;;5.10;;
71312;SDS011;59104;44.738;20.612;2022-09-17T05:45:28;6.90;;;4.95;;
71312;SDS011;59104;44.738;20.612;2022-09-17T05:47:57;10.55;;;5.10;;
71312;SDS011;59104;44.738;20.612;2022-09-17T05:50:23;8.13;;;5.40;;
71312;SDS011;59104;44.738;20.612;2022-09-17T05:52:49;8.68;;;5.55;;
71312;SDS011;59104;44.738;20.612;2022-09-17T05:55:15;6.55;;;4.40;;
71312;SDS011;59104;44.738;20.612;2022-09-17T05:57:40;10.55;;;5.45;;
71312;SDS011;59104;44.738;20.612;2022-09-17T06:00:06;8.43;;;5.10;;
71312;SDS011;59104;44.738;20.612;2022-09-17T06:02:37;9.82;;;5.18;;
71312;SDS011;59104;44.738;20.612;2022-09-17T06:05:03;10.55;;;5.63;;
71312;SDS011;59104;44.738;20.612;2022-09-17T06:07:29;9.30;;;5.70;;
71312;SDS011;59104;44.738;20.612;2022-09-17T06:09:54;9.32;;;5.88;;
71312;SDS011;59104;44.738;20.612;2022-09-17T06:12:19;9.23;;;6.18;;
71312;SDS011;59104;44.738;20.612;2022-09-17T06:14:45;11.43;;;5.80;;
71312;SDS011;59104;44.738;20.612;2022-09-17T06:17:10;10.90;;;5.72;;
71312;SDS011;59104;44.738;20.612;2022-09-17T06:19:36;8.50;;;4.95;;
71312;SDS011;59104;44.738;20.612;2022-09-17T06:22:01;8.60;;;5.13;;
71312;SDS011;59104;44.738;20.612;2022-09-17T06:24:27;11.88;;;5.70;;
71312;SDS011;59104;44.738;20.612;2022-09-17T06:26:52;12.20;;;6.13;;
71312;SDS011;59104;44.738;20.612;2022-09-17T06:29:18;8.13;;;5.80;;
71312;SDS011;59104;44.738;20.612;2022-09-17T06:31:44;9.70;;;6.05;;
71312;SDS011;59104;44.738;20.612;2022-09-17T06:34:12;12.50;;;5.90;;
71312;SDS011;59104;44.738;20.612;2022-09-17T06:36:37;9.95;;;5.75;;
71312;SDS011;59104;44.738;20.612;2022-09-17T06:39:02;12.00;;;6.25;;
71312;SDS011;59104;44.738;20.612;2022-09-17T06:41:28;9.05;;;5.40;;
71312;SDS011;59104;44.738;20.612;2022-09-17T06:43:54;10.15;;;5.95;;
71312;SDS011;59104;44.738;20.612;2022-09-17T06:46:19;9.82;;;6.10;;
71312;SDS011;59104;44.738;20.612;2022-09-17T06:48:45;8.63;;;5.70;;
71312;SDS011;59104;44.738;20.612;2022-09-17T06:51:10;10.13;;;5.68;;
71312;SDS011;59104;44.738;20.612;2022-09-17T06:53:36;11.80;;;6.13;;
71312;SDS011;59104;44.738;20.612;2022-09-17T06:56:02;10.07;;;6.18;;
71312;SDS011;59104;44.738;20.612;2022-09-17T06:58:28;11.93;;;5.88;;
71312;SDS011;59104;44.738;20.612;2022-09-17T07:00:57;12.63;;;6.80;;
71312;SDS011;59104;44.738;20.612;2022-09-17T07:03:22;9.23;;;6.32;;
71312;SDS011;59104;44.738;20.612;2022-09-17T07:05:48;11.35;;;6.53;;
71312;SDS011;59104;44.738;20.612;2022-09-17T07:08:14;10.32;;;6.80;;
71312;SDS011;59104;44.738;20.612;2022-09-17T07:10:39;9.90;;;6.38;;
71312;SDS011;59104;44.738;20.612;2022-09-17T07:13:04;10.48;;;6.68;;
71312;SDS011;59104;44.738;20.612;2022-09-17T07:15:30;9.07;;;5.88;;
71312;SDS011;59104;44.738;20.612;2022-09-17T07:17:55;10.48;;;6.47;;
71312;SDS011;59104;44.738;20.612;2022-09-17T07:20:21;10.35;;;6.53;;
71312;SDS011;59104;44.738;20.612;2022-09-17T07:22:56;8.65;;;5.85;;
71312;SDS011;59104;44.738;20.612;2022-09-17T07:25:22;8.75;;;5.82;;
71312;SDS011;59104;44.738;20.612;2022-09-17T07:27:48;10.52;;;6.00;;
71312;SDS011;59104;44.738;20.612;2022-09-17T07:30:14;10.98;;;6.90;;
71312;SDS011;59104;44.738;20.612;2022-09-17T07:32:39;9.32;;;5.07;;
71312;SDS011;59104;44.738;20.612;2022-09-17T07:35:05;9.65;;;6.13;;
71312;SDS011;59104;44.738;20.612;2022-09-17T07:37:30;9.10;;;5.43;;
71312;SDS011;59104;44.738;20.612;2022-09-17T07:39:56;8.98;;;5.63;;
71312;SDS011;59104;44.738;20.612;2022-09-17T07:42:21;12.68;;;6.30;;
71312;SDS011;59104;44.738;20.612;2022-09-17T07:44:47;9.65;;;5.97;;
71312;SDS011;59104;44.738;20.612;2022-09-17T07:47:12;10.23;;;5.85;;
71312;SDS011;59104;44.738;20.612;2022-09-17T07:49:38;10.63;;;5.55;;
71312;SDS011;59104;44.738;20.612;2022-09-17T07:52:03;9.52;;;5.97;;
71312;SDS011;59104;44.738;20.612;2022-09-17T07:54:31;8.35;;;5.68;;
71312;SDS011;59104;44.738;20.612;2022-09-17T07:56:57;8.05;;;4.90;;
71312;SDS011;59104;44.738;20.612;2022-09-17T07:59:23;8.55;;;5.47;;
71312;SDS011;59104;44.738;20.612;2022-09-17T08:01:48;10.73;;;5.85;;
71312;SDS011;59104;44.738;20.612;2022-09-17T08:04:14;7.38;;;4.43;;
71312;SDS011;59104;44.738;20.612;2022-09-17T08:06:39;7.78;;;4.82;;
71312;SDS011;59104;44.738;20.612;2022-09-17T08:09:05;9.63;;;5.05;;
71312;SDS011;59104;44.738;20.612;2022-09-17T08:11:31;8.73;;;4.85;;
71312;SDS011;59104;44.738;20.612;2022-09-17T08:13:57;7.90;;;4.93;;
71312;SDS011;59104;44.738;20.612;2022-09-17T08:16:23;8.20;;;5.40;;
71312;SDS011;59104;44.738;20.612;2022-09-17T08:18:53;8.32;;;5.15;;
71312;SDS011;59104;44.738;20.612;2022-09-17T08:21:18;10.05;;;4.47;;
71312;SDS011;59104;44.738;20.612;2022-09-17T08:23:44;7.93;;;4.82;;
71312;SDS011;59104;44.738;20.612;2022-09-17T08:26:14;7.10;;;4.80;;
71312;SDS011;59104;44.738;20.612;2022-09-17T08:28:42;8.40;;;5.18;;
71312;SDS011;59104;44.738;20.612;2022-09-17T08:31:13;14.95;;;5.90;;
71312;SDS011;59104;44.738;20.612;2022-09-17T08:33:39;9.88;;;5.47;;
71312;SDS011;59104;44.738;20.612;2022-09-17T08:36:05;7.47;;;4.97;;
71312;SDS011;59104;44.738;20.612;2022-09-17T08:38:32;12.88;;;4.38;;
71312;SDS011;59104;44.738;20.612;2022-09-17T08:43:26;7.50;;;4.68;;
71312;SDS011;59104;44.738;20.612;2022-09-17T08:45:56;7.78;;;4.13;;
71312;SDS011;59104;44.738;20.612;2022-09-17T08:48:23;6.05;;;3.90;;
71312;SDS011;59104;44.738;20.612;2022-09-17T08:50:50;6.80;;;4.07;;
71312;SDS011;59104;44.738;20.612;2022-09-17T08:58:26;8.07;;;3.45;;
71312;SDS011;59104;44.738;20.612;2022-09-17T09:05:53;6.35;;;3.47;;
71312;SDS011;59104;44.738;20.612;2022-09-17T09:10:52;6.32;;;3.25;;
71312;SDS011;59104;44.738;20.612;2022-09-17T09:13:20;6.43;;;3.50;;
71312;SDS011;59104;44.738;20.612;2022-09-17T09:15:48;6.68;;;3.70;;
71312;SDS011;59104;44.738;20.612;2022-09-17T09:18:19;6.40;;;3.58;;
71312;SDS011;59104;44.738;20.612;2022-09-17T09:23:14;6.45;;;3.40;;
71312;SDS011;59104;44.738;20.612;2022-09-17T09:25:46;6.63;;;3.47;;
71312;SDS011;59104;44.738;20.612;2022-09-17T09:28:23;5.55;;;3.20;;
71312;SDS011;59104;44.738;20.612;2022-09-17T09:33:34;4.68;;;3.47;;
71312;SDS011;59104;44.738;20.612;2022-09-17T09:36:01;7.32;;;3.72;;
71312;SDS011;59104;44.738;20.612;2022-09-17T09:38:31;6.28;;;3.85;;
71312;SDS011;59104;44.738;20.612;2022-09-17T09:41:04;5.07;;;3.50;;
71312;SDS011;59104;44.738;20.612;2022-09-17T09:43:45;5.03;;;2.70;;
71312;SDS011;59104;44.738;20.612;2022-09-17T09:46:22;3.88;;;2.47;;
71312;SDS011;59104;44.738;20.612;2022-09-17T09:49:06;3.17;;;2.03;;
71312;SDS011;59104;44.738;20.612;2022-09-17T09:51:57;4.22;;;2.28;;
71312;SDS011;59104;44.738;20.612;2022-09-17T09:57:13;4.05;;;2.58;;
71312;SDS011;59104;44.738;20.612;2022-09-17T09:59:40;3.78;;;2.58;;
71312;SDS011;59104;44.738;20.612;2022-09-17T10:02:06;4.43;;;2.80;;
71312;SDS011;59104;44.738;20.612;2022-09-17T10:04:33;9.13;;;5.30;;
71312;SDS011;59104;44.738;20.612;2022-09-17T10:07:05;9.43;;;5.50;;
71312;SDS011;59104;44.738;20.612;2022-09-17T10:09:32;5.72;;;3.63;;
71312;SDS011;59104;44.738;20.612;2022-09-17T10:14:34;3.47;;;2.70;;
71312;SDS011;59104;44.738;20.612;2022-09-17T10:22:31;4.85;;;3.15;;
71312;SDS011;59104;44.738;20.612;2022-09-17T10:24:58;5.00;;;2.70;;
71312;SDS011;59104;44.738;20.612;2022-09-17T10:27:24;4.75;;;3.20;;
71312;SDS011;59104;44.738;20.612;2022-09-17T10:29:51;4.38;;;2.78;;
71312;SDS011;59104;44.738;20.612;2022-09-17T10:32:20;4.25;;;2.78;;
71312;SDS011;59104;44.738;20.612;2022-09-17T10:37:46;5.55;;;3.10;;
71312;SDS011;59104;44.738;20.612;2022-09-17T10:42:44;5.10;;;3.17;;
71312;SDS011;59104;44.738;20.612;2022-09-17T10:45:23;4.88;;;3.10;;
71312;SDS011;59104;44.738;20.612;2022-09-17T10:47:49;5.22;;;3.05;;
71312;SDS011;59104;44.738;20.612;2022-09-17T10:50:15;5.38;;;3.05;;
71312;SDS011;59104;44.738;20.612;2022-09-17T10:52:49;5.50;;;3.28;;
71312;SDS011;59104;44.738;20.612;2022-09-17T11:00:18;7.28;;;3.47;;
71312;SDS011;59104;44.738;20.612;2022-09-17T11:05:24;4.32;;;2.70;;
71312;SDS011;59104;44.738;20.612;2022-09-17T11:10:28;6.82;;;4.03;;
71312;SDS011;59104;44.738;20.612;2022-09-17T11:20:50;3.80;;;2.40;;
71312;SDS011;59104;44.738;20.612;2022-09-17T11:25:50;6.32;;;3.20;;
71312;SDS011;59104;44.738;20.612;2022-09-17T11:36:10;5.15;;;3.30;;
71312;SDS011;59104;44.738;20.612;2022-09-17T11:38:39;5.90;;;3.50;;
71312;SDS011;59104;44.738;20.612;2022-09-17T11:43:33;5.30;;;3.00;;
71312;SDS011;59104;44.738;20.612;2022-09-17T11:48:36;3.97;;;3.08;;
71312;SDS011;59104;44.738;20.612;2022-09-17T11:53:42;4.97;;;2.83;;
71312;SDS011;59104;44.738;20.612;2022-09-17T11:56:17;6.75;;;3.40;;
71312;SDS011;59104;44.738;20.612;2022-09-17T11:58:47;5.68;;;4.07;;
71312;SDS011;59104;44.738;20.612;2022-09-17T12:01:30;6.75;;;3.45;;
71312;SDS011;59104;44.738;20.612;2022-09-17T12:04:03;5.60;;;3.40;;
71312;SDS011;59104;44.738;20.612;2022-09-17T12:06:43;4.72;;;3.20;;
71312;SDS011;59104;44.738;20.612;2022-09-17T12:09:12;4.45;;;3.10;;
71312;SDS011;59104;44.738;20.612;2022-09-17T12:11:58;5.32;;;3.13;;
71312;SDS011;59104;44.738;20.612;2022-09-17T12:14:26;6.25;;;3.22;;
71312;SDS011;59104;44.738;20.612;2022-09-17T12:16:57;6.85;;;3.33;;
71312;SDS011;59104;44.738;20.612;2022-09-17T12:19:43;4.75;;;3.55;;
71312;SDS011;59104;44.738;20.612;2022-09-17T12:22:11;5.53;;;3.20;;
71312;SDS011;59104;44.738;20.612;2022-09-17T12:24:39;4.22;;;3.00;;
71312;SDS011;59104;44.738;20.612;2022-09-17T12:27:08;4.82;;;3.17;;
71312;SDS011;59104;44.738;20.612;2022-09-17T12:34:58;5.35;;;3.47;;
71312;SDS011;59104;44.738;20.612;2022-09-17T12:45:21;5.75;;;3.00;;
71312;SDS011;59104;44.738;20.612;2022-09-17T12:50:19;4.97;;;3.00;;
71312;SDS011;59104;44.738;20.612;2022-09-17T12:58:04;5.05;;;3.10;;
71312;SDS011;59104;44.738;20.612;2022-09-17T13:00:36;6.72;;;3.05;;
71312;SDS011;59104;44.738;20.612;2022-09-17T13:03:06;5.25;;;3.30;;
71312;SDS011;59104;44.738;20.612;2022-09-17T13:18:41;4.35;;;3.00;;
71312;SDS011;59104;44.738;20.612;2022-09-17T13:23:45;5.40;;;3.53;;
71312;SDS011;59104;44.738;20.612;2022-09-17T13:26:13;5.18;;;3.33;;
71312;SDS011;59104;44.738;20.612;2022-09-17T13:28:44;6.70;;;3.90;;
71312;SDS011;59104;44.738;20.612;2022-09-17T13:31:10;5.80;;;3.72;;
71312;SDS011;59104;44.738;20.612;2022-09-17T13:39:03;5.35;;;3.45;;
71312;SDS011;59104;44.738;20.612;2022-09-17T13:41:29;5.22;;;3.45;;
71312;SDS011;59104;44.738;20.612;2022-09-17T13:43:56;3.97;;;3.30;;
71312;SDS011;59104;44.738;20.612;2022-09-17T13:46:22;5.03;;;3.35;;
71312;SDS011;59104;44.738;20.612;2022-09-17T13:48:49;4.20;;;2.70;;
71312;SDS011;59104;44.738;20.612;2022-09-17T13:53:57;6.95;;;2.53;;
71312;SDS011;59104;44.738;20.612;2022-09-17T13:59:04;4.18;;;2.92;;
71312;SDS011;59104;44.738;20.612;2022-09-17T14:06:59;4.45;;;2.67;;
71312;SDS011;59104;44.738;20.612;2022-09-17T14:09:33;6.40;;;3.30;;
71312;SDS011;59104;44.738;20.612;2022-09-17T14:11:58;6.60;;;3.17;;
71312;SDS011;59104;44.738;20.612;2022-09-17T14:16:52;4.65;;;2.95;;
71312;SDS011;59104;44.738;20.612;2022-09-17T14:32:23;5.70;;;2.95;;
71312;SDS011;59104;44.738;20.612;2022-09-17T14:34:54;3.30;;;2.22;;
71312;SDS011;59104;44.738;20.612;2022-09-17T14:37:21;3.83;;;2.40;;
71312;SDS011;59104;44.738;20.612;2022-09-17T14:39:48;4.88;;;2.35;;
71312;SDS011;59104;44.738;20.612;2022-09-17T14:42:17;4.50;;;2.53;;
71312;SDS011;59104;44.738;20.612;2022-09-17T14:44:58;4.88;;;2.00;;
71312;SDS011;59104;44.738;20.612;2022-09-17T14:47:24;4.15;;;2.42;;
71312;SDS011;59104;44.738;20.612;2022-09-17T14:49:51;4.60;;;2.67;;
71312;SDS011;59104;44.738;20.612;2022-09-17T14:55:07;3.88;;;2.22;;
71312;SDS011;59104;44.738;20.612;2022-09-17T14:57:32;5.65;;;2.10;;
71312;SDS011;59104;44.738;20.612;2022-09-17T14:59:58;3.58;;;2.17;;
71312;SDS011;59104;44.738;20.612;2022-09-17T15:04:53;3.05;;;2.13;;
71312;SDS011;59104;44.738;20.612;2022-09-17T15:07:19;5.18;;;2.58;;
71312;SDS011;59104;44.738;20.612;2022-09-17T15:09:44;4.65;;;2.30;;
71312;SDS011;59104;44.738;20.612;2022-09-17T15:12:10;3.40;;;2.33;;
71312;SDS011;59104;44.738;20.612;2022-09-17T15:14:39;3.95;;;2.25;;
71312;SDS011;59104;44.738;20.612;2022-09-17T15:17:05;5.13;;;2.30;;
71312;SDS011;59104;44.738;20.612;2022-09-17T15:19:37;4.75;;;2.53;;
71312;SDS011;59104;44.738;20.612;2022-09-17T15:22:05;4.15;;;2.17;;
71312;SDS011;59104;44.738;20.612;2022-09-17T15:27:26;4.97;;;2.15;;
71312;SDS011;59104;44.738;20.612;2022-09-17T15:29:55;3.20;;;1.48;;
71312;SDS011;59104;44.738;20.612;2022-09-17T15:32:22;2.78;;;1.70;;
71312;SDS011;59104;44.738;20.612;2022-09-17T15:35:33;2.72;;;1.60;;
71312;SDS011;59104;44.738;20.612;2022-09-17T15:37:35;3.60;;;2.00;;
71312;SDS011;59104;44.738;20.612;2022-09-17T15:40:24;2.47;;;1.73;;
71312;SDS011;59104;44.738;20.612;2022-09-17T15:42:50;3.70;;;1.98;;
71312;SDS011;59104;44.738;20.612;2022-09-17T15:45:19;3.55;;;2.08;;
71312;SDS011;59104;44.738;20.612;2022-09-17T15:50:21;3.25;;;2.30;;
71312;SDS011;59104;44.738;20.612;2022-09-17T15:52:47;2.90;;;2.03;;
71312;SDS011;59104;44.738;20.612;2022-09-17T15:55:35;3.67;;;2.28;;
71312;SDS011;59104;44.738;20.612;2022-09-17T15:58:24;2.88;;;2.15;;
71312;SDS011;59104;44.738;20.612;2022-09-17T16:00:51;2.70;;;1.88;;
71312;SDS011;59104;44.738;20.612;2022-09-17T16:03:57;2.90;;;2.15;;
71312;SDS011;59104;44.738;20.612;2022-09-17T16:08:44;5.10;;;2.53;;
71312;SDS011;59104;44.738;20.612;2022-09-17T16:11:17;3.03;;;2.30;;
71312;SDS011;59104;44.738;20.612;2022-09-17T16:13:46;3.33;;;2.33;;
71312;SDS011;59104;44.738;20.612;2022-09-17T16:16:13;7.50;;;3.17;;
71312;SDS011;59104;44.738;20.612;2022-09-17T16:18:39;5.35;;;3.22;;
71312;SDS011;59104;44.738;20.612;2022-09-17T16:21:04;5.20;;;3.15;;
71312;SDS011;59104;44.738;20.612;2022-09-17T16:23:29;4.55;;;2.88;;
71312;SDS011;59104;44.738;20.612;2022-09-17T16:25:55;4.78;;;3.05;;
71312;SDS011;59104;44.738;20.612;2022-09-17T16:28:21;4.60;;;2.83;;
71312;SDS011;59104;44.738;20.612;2022-09-17T16:30:47;5.57;;;3.13;;
71312;SDS011;59104;44.738;20.612;2022-09-17T16:33:13;3.83;;;3.03;;
71312;SDS011;59104;44.738;20.612;2022-09-17T16:35:40;6.20;;;3.60;;
71312;SDS011;59104;44.738;20.612;2022-09-17T16:38:05;5.25;;;2.70;;
71312;SDS011;59104;44.738;20.612;2022-09-17T16:40:31;5.22;;;2.83;;
71312;SDS011;59104;44.738;20.612;2022-09-17T16:43:00;3.08;;;2.05;;
71312;SDS011;59104;44.738;20.612;2022-09-17T16:45:26;3.42;;;2.53;;
71312;SDS011;59104;44.738;20.612;2022-09-17T16:47:51;3.13;;;2.22;;
71312;SDS011;59104;44.738;20.612;2022-09-17T16:50:17;3.60;;;2.33;;
71312;SDS011;59104;44.738;20.612;2022-09-17T16:52:43;4.80;;;2.08;;
71312;SDS011;59104;44.738;20.612;2022-09-17T16:55:09;3.38;;;2.10;;
71312;SDS011;59104;44.738;20.612;2022-09-17T16:57:35;2.83;;;1.73;;
71312;SDS011;59104;44.738;20.612;2022-09-17T17:00:00;3.97;;;2.00;;
71312;SDS011;59104;44.738;20.612;2022-09-17T17:02:26;3.53;;;2.30;;
71312;SDS011;59104;44.738;20.612;2022-09-17T17:04:51;3.50;;;2.50;;
71312;SDS011;59104;44.738;20.612;2022-09-17T17:07:17;4.25;;;2.50;;
71312;SDS011;59104;44.738;20.612;2022-09-17T17:09:43;5.70;;;2.88;;
71312;SDS011;59104;44.738;20.612;2022-09-17T17:12:08;3.83;;;2.33;;
71312;SDS011;59104;44.738;20.612;2022-09-17T17:14:34;4.72;;;2.30;;
71312;SDS011;59104;44.738;20.612;2022-09-17T17:16:59;4.88;;;2.80;;
71312;SDS011;59104;44.738;20.612;2022-09-17T17:19:25;3.10;;;2.25;;
71312;SDS011;59104;44.738;20.612;2022-09-17T17:21:51;3.88;;;2.00;;
71312;SDS011;59104;44.738;20.612;2022-09-17T17:24:17;4.63;;;2.55;;
71312;SDS011;59104;44.738;20.612;2022-09-17T17:26:42;3.42;;;2.28;;
71312;SDS011;59104;44.738;20.612;2022-09-17T17:29:08;5.28;;;2.25;;
71312;SDS011;59104;44.738;20.612;2022-09-17T17:31:34;3.13;;;2.05;;
71312;SDS011;59104;44.738;20.612;2022-09-17T17:33:59;2.92;;;1.75;;
71312;SDS011;59104;44.738;20.612;2022-09-17T17:36:24;3.13;;;1.98;;
71312;SDS011;59104;44.738;20.612;2022-09-17T17:38:54;2.53;;;1.85;;
71312;SDS011;59104;44.738;20.612;2022-09-17T17:41:19;2.38;;;1.65;;
71312;SDS011;59104;44.738;20.612;2022-09-17T17:43:47;2.78;;;1.92;;
71312;SDS011;59104;44.738;20.612;2022-09-17T17:46:12;2.47;;;1.58;;
71312;SDS011;59104;44.738;20.612;2022-09-17T17:48:39;2.33;;;1.48;;
71312;SDS011;59104;44.738;20.612;2022-09-17T17:51:05;2.60;;;1.50;;
71312;SDS011;59104;44.738;20.612;2022-09-17T17:53:31;2.47;;;1.77;;
71312;SDS011;59104;44.738;20.612;2022-09-17T17:55:58;3.38;;;1.48;;
71312;SDS011;59104;44.738;20.612;2022-09-17T17:58:24;2.22;;;1.45;;
71312;SDS011;59104;44.738;20.612;2022-09-17T18:00:49;2.88;;;2.15;;
71312;SDS011;59104;44.738;20.612;2022-09-17T18:03:15;2.72;;;1.90;;
71312;SDS011;59104;44.738;20.612;2022-09-17T18:05:40;2.30;;;1.48;;
71312;SDS011;59104;44.738;20.612;2022-09-17T18:08:05;3.58;;;1.90;;